Time;durP1;ratioP1;P1;durP2;ratioP2;P2;SDS_P1;SDS_P2;PMS_P1;PMS_P2;Temp;Humidity;BMP_temperature;BMP_pressure;BME280_temperature;BME280_humidity;BME280_pressure;Samples;Min_cycle;Max_cycle;Signal;HPM_P1;HPM_P2
2021/11/17 02:25:50;;;;;;;;;;;22.00;54.20;;;;;;688297;28;605;-84
2021/11/17 02:26:15;;;;;;;;;;;22.00;54.30;;;;;;688507;28;1446;-82
2021/11/17 02:26:38;;;;;;;;;;;22.00;54.30;;;;;;688092;28;960;-86
2021/11/17 02:27:03;;;;;;;;;;;22.00;54.30;;;;;;688243;28;827;-87
2021/11/17 02:27:26;;;;;;;;;;;22.00;54.30;;;;;;688209;28;867;-85
2021/11/17 02:27:53;;;;;;;;;;;22.00;54.30;;;;;;688273;28;922;-87
2021/11/17 02:28:35;;;;;;;;;;;22.00;54.30;;;;;;690646;28;1047;-85
2021/11/17 02:29:04;;;;;;;;;;;22.00;54.30;;;;;;690910;28;989;-85
2021/11/17 02:29:48;;;;;;;;;;;21.90;54.20;;;;;;690864;28;1291;-86
2021/11/17 02:30:09;;;;;;;;;;;22.00;54.30;;;;;;680225;29;963;-85
2021/11/17 02:30:35;;;;;;;;;;;22.00;54.30;;;;;;680144;29;871;-87
2021/11/17 02:31:03;;;;;;;;;;;22.00;54.30;;;;;;680314;29;902;-85
2021/11/17 02:31:26;;;;;;;;;;;22.00;54.30;;;;;;680274;29;812;-85
2021/11/17 02:32:08;;;;;;;;;;;22.00;54.30;;;;;;680306;29;1416;-88
2021/11/17 02:32:34;;;;;;;;;;;22.00;54.20;;;;;;680291;29;838;-85
2021/11/17 02:32:55;;;;;;;;;;;22.00;54.30;;;;;;680283;29;790;-83
2021/11/17 02:33:41;;;;;;;;;;;21.90;54.20;;;;;;680412;29;910;-87
2021/11/17 02:34:26;;;;;;;;;;;22.00;54.30;;;;;;680237;29;822;-86
2021/11/17 02:34:59;;;;;;;;;;;22.00;54.30;;;;;;680412;29;933;-85
2021/11/17 02:35:28;;;;;;;;;;;21.90;54.30;;;;;;680256;29;827;-83
2021/11/17 02:36:07;;;;;;;;;;;22.00;54.30;;;;;;680129;29;1960;-82
2021/11/17 02:36:40;;;;;;;;;;;22.00;54.30;;;;;;680248;29;795;-86
2021/11/17 02:37:00;;;;;;;;;;;22.00;54.20;;;;;;680061;29;1519;-86
2021/11/17 02:37:40;;;;;;;;;;;22.00;54.30;;;;;;680244;29;957;-85
2021/11/17 02:38:03;;;;;;;;;;;21.90;54.30;;;;;;680788;29;1005;-85
2021/11/17 02:38:26;;;;;;;;;;;21.90;54.20;;;;;;680822;29;855;-88
2021/11/17 02:38:47;;;;;;;;;;;22.00;54.30;;;;;;680952;29;879;-86
2021/11/17 02:39:19;;;;;;;;;;;22.00;54.30;;;;;;680761;29;828;-87
2021/11/17 02:39:49;;;;;;;;;;;21.90;54.30;;;;;;680885;29;883;-82
2021/11/17 02:40:09;;;;;;;;;;;21.90;54.20;;;;;;680879;29;846;-83
2021/11/17 02:40:53;;;;;;;;;;;21.90;54.30;;;;;;680716;29;918;-85
2021/11/17 02:41:23;;;;;;;;;;;21.90;54.20;;;;;;678153;29;1056;-82
2021/11/17 02:42:12;;;;;;;;;;;21.90;54.20;;;;;;678016;29;1212;-84
2021/11/17 02:42:42;;;;;;;;;;;22.00;54.30;;;;;;670257;29;1357;-82
2021/11/17 02:43:05;;;;;;;;;;;21.90;54.30;;;;;;670339;29;1060;-81
2021/11/17 02:43:52;;;;;;;;;;;21.90;54.20;;;;;;670403;29;820;-83
2021/11/17 02:44:13;;;;;;;;;;;21.90;54.30;;;;;;672984;29;1275;-82
2021/11/17 02:44:36;;;;;;;;;;;22.00;54.30;;;;;;672869;29;1132;-83
2021/11/17 02:45:05;;;;;;;;;;;21.90;54.30;;;;;;669090;29;1308;-81
2021/11/17 02:45:40;;;;;;;;;;;21.90;54.20;;;;;;667879;29;884;-81
2021/11/17 02:46:30;;;;;;;;;;;21.90;54.20;;;;;;667839;29;876;-83
2021/11/17 02:47:08;;;;;;;;;;;21.90;54.20;;;;;;666989;29;962;-81
2021/11/17 02:47:38;;;;;;;;;;;21.90;54.20;;;;;;667664;29;1216;-80
2021/11/17 02:48:17;;;;;;;;;;;21.90;54.20;;;;;;667860;29;975;-81
2021/11/17 02:48:37;;;;;;;;;;;21.90;54.20;;;;;;667758;29;1261;-79
2021/11/17 02:49:01;;;;;;;;;;;21.90;54.30;;;;;;667849;29;999;-81
2021/11/17 02:49:24;;;;;;;;;;;21.90;54.20;;;;;;667582;29;1247;-80
2021/11/17 02:49:56;;;;;;;;;;;21.90;54.20;;;;;;667941;29;852;-82
2021/11/17 02:50:27;;;;;;;;;;;21.90;54.30;;;;;;667773;29;892;-81
2021/11/17 02:51:06;;;;;;;;;;;21.90;54.30;;;;;;668040;29;805;-82
2021/11/17 02:51:46;;;;;;;;;;;21.90;54.20;;;;;;670349;29;864;-80
2021/11/17 02:52:06;;;;;;;;;;;21.90;54.20;;;;;;670344;29;1186;-81
2021/11/17 02:52:36;;;;;;;;;;;21.90;54.20;;;;;;670270;29;1106;-81
2021/11/17 02:53:09;;;;;;;;;;;21.90;54.20;;;;;;667827;29;860;-81
2021/11/17 02:53:39;;;;;;;;;;;21.90;54.30;;;;;;667818;29;965;-81
2021/11/17 02:54:18;;;;;;;;;;;21.90;54.20;;;;;;664892;29;1222;-83
2021/11/17 02:54:48;;;;;;;;;;;21.90;54.30;;;;;;665262;29;1035;-84
2021/11/17 02:55:33;;;;;;;;;;;21.90;54.30;;;;;;667791;29;789;-82
2021/11/17 02:56:14;;;;;;;;;;;21.90;54.30;;;;;;669302;29;1966;-84
2021/11/17 02:56:47;;;;;;;;;;;21.90;54.30;;;;;;669483;29;1286;-82
2021/11/17 02:57:19;;;;;;;;;;;21.90;54.30;;;;;;670309;29;896;-82
2021/11/17 02:57:49;;;;;;;;;;;21.90;54.20;;;;;;670469;29;958;-83
2021/11/17 02:58:19;;;;;;;;;;;21.90;54.30;;;;;;667618;29;1329;-82
2021/11/17 02:58:39;;;;;;;;;;;21.90;54.20;;;;;;667780;29;1018;-82
2021/11/17 02:59:18;;;;;;;;;;;21.90;54.20;;;;;;667901;29;793;-82
2021/11/17 02:59:39;;;;;;;;;;;21.90;54.20;;;;;;667874;29;828;-83
2021/11/17 03:00:14;;;;;;;;;;;21.90;54.30;;;;;;668837;29;997;-84
2021/11/17 03:00:44;;;;;;;;;;;21.90;54.30;;;;;;670362;29;1002;-81
2021/11/17 03:01:07;;;;;;;;;;;21.90;54.30;;;;;;667754;29;1280;-84
2021/11/17 03:01:30;;;;;;;;;;;21.90;54.20;;;;;;667853;29;892;-85
2021/11/17 03:02:29;;;;;;;;;;;21.90;54.30;;;;;;667793;29;995;-82
2021/11/17 03:03:10;;;;;;;;;;;21.90;54.20;;;;;;665959;29;945;-86
2021/11/17 03:03:36;;;;;;;;;;;21.90;54.30;;;;;;665240;29;1015;-89
2021/11/17 03:04:07;;;;;;;;;;;21.90;54.30;;;;;;665440;29;876;-84
2021/11/17 03:04:30;;;;;;;;;;;21.90;54.30;;;;;;663710;29;1255;-87
2021/11/17 03:05:02;;;;;;;;;;;21.90;54.30;;;;;;663082;29;1281;-83
2021/11/17 03:05:38;;;;;;;;;;;21.90;54.30;;;;;;665309;29;920;-85
2021/11/17 03:06:01;;;;;;;;;;;21.90;54.20;;;;;;665306;29;833;-83
2021/11/17 03:06:33;;;;;;;;;;;21.90;54.30;;;;;;665093;29;1083;-84
2021/11/17 03:07:07;;;;;;;;;;;21.90;54.20;;;;;;665318;29;892;-87
2021/11/17 03:07:52;;;;;;;;;;;21.90;54.30;;;;;;665294;29;861;-91
2021/11/17 03:08:13;;;;;;;;;;;21.90;54.30;;;;;;667105;29;1006;-83
2021/11/17 03:08:37;;;;;;;;;;;21.90;54.30;;;;;;672867;29;824;-84
2021/11/17 03:09:33;;;;;;;;;;;21.90;54.40;;;;;;673278;29;1092;-88
2021/11/17 03:09:54;;;;;;;;;;;21.90;54.40;;;;;;670310;29;1237;-93
2021/11/17 03:10:21;;;;;;;;;;;21.90;54.30;;;;;;670558;29;796;-89
2021/11/17 03:10:56;;;;;;;;;;;21.90;54.30;;;;;;670690;29;849;-90
2021/11/17 03:11:35;;;;;;;;;;;21.90;54.40;;;;;;670707;29;875;-84
2021/11/17 03:12:14;;;;;;;;;;;21.90;54.30;;;;;;670421;29;812;-85
2021/11/17 03:12:53;;;;;;;;;;;21.90;54.30;;;;;;670400;29;1107;-89
2021/11/17 03:13:32;;;;;;;;;;;21.90;54.20;;;;;;670459;29;801;-82
2021/11/17 03:14:06;;;;;;;;;;;21.90;54.30;;;;;;670276;29;1254;-79
2021/11/17 03:14:32;;;;;;;;;;;21.90;54.30;;;;;;670253;29;1078;-80
2021/11/17 03:14:53;;;;;;;;;;;21.90;54.30;;;;;;670351;29;828;-82
2021/11/17 03:15:19;;;;;;;;;;;21.90;54.30;;;;;;670374;29;1011;-80
2021/11/17 03:15:52;;;;;;;;;;;21.90;54.40;;;;;;670285;29;879;-81
2021/11/17 03:16:12;;;;;;;;;;;21.90;54.30;;;;;;670479;29;931;-82
2021/11/17 03:16:39;;;;;;;;;;;21.90;54.40;;;;;;670316;29;870;-79
2021/11/17 03:17:08;;;;;;;;;;;21.90;54.30;;;;;;670265;29;925;-80
2021/11/17 03:17:41;;;;;;;;;;;21.90;54.20;;;;;;670354;29;1072;-81
2021/11/17 03:18:01;;;;;;;;;;;21.90;54.30;;;;;;670257;29;987;-79
2021/11/17 03:18:22;;;;;;;;;;;21.80;54.10;;;;;;670263;29;854;-79
2021/11/17 03:18:49;;;;;;;;;;;21.90;54.20;;;;;;670378;29;819;-79
2021/11/17 03:19:15;;;;;;;;;;;21.90;54.20;;;;;;670301;29;968;-82
2021/11/17 03:19:42;;;;;;;;;;;21.90;54.10;;;;;;667818;29;881;-81
2021/11/17 03:20:20;;;;;;;;;;;21.90;54.10;;;;;;668333;29;1010;-81
2021/11/17 03:21:07;;;;;;;;;;;21.90;54.10;;;;;;670395;29;966;-81
2021/11/17 03:21:28;;;;;;;;;;;21.90;54.10;;;;;;669186;29;1078;-79
2021/11/17 03:21:49;;;;;;;;;;;21.90;54.10;;;;;;670413;29;1014;-80
2021/11/17 03:22:16;;;;;;;;;;;21.90;54.20;;;;;;670332;29;824;-79
2021/11/17 03:22:36;;;;;;;;;;;21.80;54.10;;;;;;670315;29;777;-80
2021/11/17 03:23:15;;;;;;;;;;;21.90;54.10;;;;;;670310;29;876;-80
2021/11/17 03:23:35;;;;;;;;;;;21.80;54.10;;;;;;670271;29;962;-79
2021/11/17 03:24:21;;;;;;;;;;;21.90;54.10;;;;;;670275;29;848;-80
2021/11/17 03:25:04;;;;;;;;;;;21.80;54.10;;;;;;670447;29;804;-79
2021/11/17 03:25:31;;;;;;;;;;;21.80;54.10;;;;;;663221;29;1465;-79
2021/11/17 03:25:58;;;;;;;;;;;21.90;54.20;;;;;;662728;29;871;-81
2021/11/17 03:26:25;;;;;;;;;;;21.80;54.20;;;;;;662856;29;1011;-80
2021/11/17 03:26:45;;;;;;;;;;;21.90;54.30;;;;;;662835;29;983;-80
2021/11/17 03:27:24;;;;;;;;;;;21.80;54.20;;;;;;662706;29;853;-82
2021/11/17 03:27:53;;;;;;;;;;;21.80;54.10;;;;;;662836;29;856;-80
2021/11/17 03:28:29;;;;;;;;;;;21.90;54.30;;;;;;662828;29;990;-80
2021/11/17 03:28:59;;;;;;;;;;;21.80;54.10;;;;;;662772;29;1006;-80
2021/11/17 03:29:20;;;;;;;;;;;21.80;54.10;;;;;;662850;29;805;-80
2021/11/17 03:29:46;;;;;;;;;;;21.80;54.10;;;;;;662857;29;982;-81
2021/11/17 03:30:25;;;;;;;;;;;21.80;54.10;;;;;;662675;29;880;-80
2021/11/17 03:30:51;;;;;;;;;;;21.80;54.10;;;;;;662903;29;816;-82
2021/11/17 03:31:20;;;;;;;;;;;21.80;54.10;;;;;;662761;29;1099;-81
2021/11/17 03:31:41;;;;;;;;;;;21.80;54.10;;;;;;662739;29;896;-82
2021/11/17 03:32:20;;;;;;;;;;;21.80;54.10;;;;;;662674;29;1187;-80
2021/11/17 03:32:56;;;;;;;;;;;21.80;54.10;;;;;;662858;29;816;-82
2021/11/17 03:33:16;;;;;;;;;;;21.80;54.20;;;;;;662755;29;900;-81
2021/11/17 03:33:50;;;;;;;;;;;21.80;54.20;;;;;;662722;29;853;-80
2021/11/17 03:34:29;;;;;;;;;;;21.80;54.20;;;;;;662779;29;848;-81
2021/11/17 03:34:52;;;;;;;;;;;21.80;54.20;;;;;;666394;29;936;-81
2021/11/17 03:35:25;;;;;;;;;;;21.90;54.30;;;;;;667701;29;989;-81
2021/11/17 03:35:57;;;;;;;;;;;21.80;54.30;;;;;;667752;29;903;-81
2021/11/17 03:36:33;;;;;;;;;;;21.80;54.30;;;;;;667825;29;872;-81
2021/11/17 03:37:06;;;;;;;;;;;21.80;54.30;;;;;;667699;29;851;-81
2021/11/17 03:37:48;;;;;;;;;;;21.80;54.40;;;;;;667729;29;880;-81
2021/11/17 03:38:21;;;;;;;;;;;21.90;54.50;;;;;;667760;29;879;-82
2021/11/17 03:38:52;;;;;;;;;;;21.90;54.50;;;;;;667739;29;1055;-81
2021/11/17 03:39:42;;;;;;;;;;;21.80;54.40;;;;;;667739;29;815;-82
2021/11/17 03:40:21;;;;;;;;;;;21.90;54.50;;;;;;667974;29;1105;-80
2021/11/17 03:40:59;;;;;;;;;;;21.90;54.50;;;;;;668555;29;962;-78
2021/11/17 03:41:20;;;;;;;;;;;21.90;54.50;;;;;;668818;29;851;-81
2021/11/17 03:41:46;;;;;;;;;;;21.90;54.40;;;;;;669877;29;1142;-79
2021/11/17 03:42:06;;;;;;;;;;;21.90;54.40;;;;;;678178;29;894;-80
2021/11/17 03:42:27;;;;;;;;;;;21.90;54.50;;;;;;678129;29;989;-79
2021/11/17 03:43:06;;;;;;;;;;;21.80;54.40;;;;;;678306;29;911;-79
2021/11/17 03:43:27;;;;;;;;;;;21.90;54.50;;;;;;678587;29;858;-80
2021/11/17 03:44:10;;;;;;;;;;;21.90;54.40;;;;;;678666;29;864;-80
2021/11/17 03:44:49;;;;;;;;;;;21.90;54.40;;;;;;678478;29;843;-79
2021/11/17 03:45:28;;;;;;;;;;;21.90;54.50;;;;;;685231;28;941;-79
2021/11/17 03:45:58;;;;;;;;;;;21.90;54.50;;;;;;686544;28;886;-80
2021/11/17 03:46:21;;;;;;;;;;;21.90;54.50;;;;;;687258;28;926;-80
2021/11/17 03:46:50;;;;;;;;;;;21.90;54.50;;;;;;689408;28;930;-79
2021/11/17 03:47:26;;;;;;;;;;;21.90;54.50;;;;;;689426;28;894;-79
2021/11/17 03:47:47;;;;;;;;;;;21.90;54.50;;;;;;689223;28;947;-79
2021/11/17 03:48:13;;;;;;;;;;;21.90;54.50;;;;;;689118;28;850;-80
2021/11/17 03:48:34;;;;;;;;;;;21.90;54.50;;;;;;688751;28;954;-79
2021/11/17 03:49:09;;;;;;;;;;;21.90;54.50;;;;;;689185;28;835;-78
2021/11/17 03:49:30;;;;;;;;;;;21.90;54.50;;;;;;689132;28;873;-79
2021/11/17 03:50:16;;;;;;;;;;;21.90;54.60;;;;;;689349;28;866;-81
2021/11/17 03:50:56;;;;;;;;;;;21.90;54.50;;;;;;683660;29;1255;-79
2021/11/17 03:51:28;;;;;;;;;;;21.90;54.60;;;;;;684015;29;1004;-79
2021/11/17 03:52:10;;;;;;;;;;;21.90;54.60;;;;;;683745;29;859;-79
2021/11/17 03:52:42;;;;;;;;;;;21.90;54.50;;;;;;683862;29;871;-80
2021/11/17 03:53:06;;;;;;;;;;;21.90;54.60;;;;;;683815;29;1444;-79
2021/11/17 03:53:44;;;;;;;;;;;21.90;54.60;;;;;;683818;29;836;-80
2021/11/17 03:54:23;;;;;;;;;;;21.90;54.50;;;;;;683743;29;875;-80
2021/11/17 03:55:01;;;;;;;;;;;21.90;54.60;;;;;;683647;29;867;-80
2021/11/17 03:55:31;;;;;;;;;;;21.90;54.60;;;;;;683220;29;863;-80
2021/11/17 03:55:54;;;;;;;;;;;21.90;54.60;;;;;;683194;29;883;-80
2021/11/17 03:56:21;;;;;;;;;;;21.90;54.50;;;;;;683239;29;1015;-80
2021/11/17 03:56:45;;;;;;;;;;;21.90;54.50;;;;;;683164;29;989;-82
2021/11/17 03:57:13;;;;;;;;;;;21.90;54.50;;;;;;683229;29;1044;-81
2021/11/17 03:57:39;;;;;;;;;;;21.90;54.50;;;;;;683168;29;827;-80
2021/11/17 03:58:00;;;;;;;;;;;21.90;54.40;;;;;;683192;29;862;-80
2021/11/17 03:58:39;;;;;;;;;;;21.90;54.60;;;;;;683137;29;882;-81
2021/11/17 03:59:22;;;;;;;;;;;21.90;55.60;;;;;;683220;29;965;-80
2021/11/17 03:59:49;;;;;;;;;;;21.90;54.50;;;;;;683341;29;866;-80
2021/11/17 04:00:12;;;;;;;;;;;21.90;54.60;;;;;;680455;29;921;-79
2021/11/17 04:00:32;;;;;;;;;;;21.90;55.50;;;;;;680546;29;868;-79
2021/11/17 04:00:53;;;;;;;;;;;21.90;54.40;;;;;;680569;29;910;-78
2021/11/17 04:01:26;;;;;;;;;;;21.90;54.40;;;;;;680629;29;951;-81
2021/11/17 04:01:53;;;;;;;;;;;21.90;54.40;;;;;;680679;29;871;-78
2021/11/17 04:02:33;;;;;;;;;;;21.90;54.50;;;;;;683428;29;879;-81
2021/11/17 04:02:53;;;;;;;;;;;21.90;55.60;;;;;;683294;29;842;-82
2021/11/17 04:03:29;;;;;;;;;;;21.90;54.60;;;;;;683369;29;835;-80
2021/11/17 04:03:52;;;;;;;;;;;21.90;54.70;;;;;;696909;28;858;-80
2021/11/17 04:04:15;;;;;;;;;;;21.90;54.80;;;;;;696863;28;830;-81
2021/11/17 04:04:44;;;;;;;;;;;21.90;54.80;;;;;;696652;28;882;-81
2021/11/17 04:05:14;;;;;;;;;;;21.90;54.80;;;;;;696662;28;870;-81
2021/11/17 04:05:37;;;;;;;;;;;21.90;54.80;;;;;;696719;28;869;-81
2021/11/17 04:05:58;;;;;;;;;;;21.90;54.80;;;;;;696682;28;830;-81
2021/11/17 04:06:34;;;;;;;;;;;21.90;54.80;;;;;;696882;28;937;-80
2021/11/17 04:07:04;;;;;;;;;;;21.90;54.70;;;;;;696777;28;889;-81
2021/11/17 04:07:43;;;;;;;;;;;21.90;54.80;;;;;;696711;28;874;-82
2021/11/17 04:08:13;;;;;;;;;;;21.90;54.70;;;;;;696663;28;1271;-80
2021/11/17 04:08:42;;;;;;;;;;;21.90;54.70;;;;;;696777;28;858;-81
2021/11/17 04:09:03;;;;;;;;;;;21.90;54.60;;;;;;696880;28;993;-80
2021/11/17 04:09:25;;;;;;;;;;;21.90;54.70;;;;;;697110;28;866;-82
2021/11/17 04:09:48;;;;;;;;;;;21.90;54.60;;;;;;697108;28;861;-81
2021/11/17 04:10:25;;;;;;;;;;;21.90;54.70;;;;;;697520;28;996;-80
2021/11/17 04:10:49;;;;;;;;;;;21.90;54.70;;;;;;697355;28;810;-80
2021/11/17 04:11:24;;;;;;;;;;;21.90;54.60;;;;;;697450;28;992;-79
2021/11/17 04:11:57;;;;;;;;;;;21.90;54.60;;;;;;697021;28;1280;-82
2021/11/17 04:12:18;;;;;;;;;;;21.90;54.60;;;;;;697166;28;811;-80
2021/11/17 04:12:39;;;;;;;;;;;21.90;54.60;;;;;;697086;28;1036;-81
2021/11/17 04:13:23;;;;;;;;;;;21.90;54.60;;;;;;696639;28;892;-79
2021/11/17 04:14:01;;;;;;;;;;;21.90;54.60;;;;;;691796;28;1321;-79
2021/11/17 04:14:22;;;;;;;;;;;22.00;55.70;;;;;;697020;28;1068;-80
2021/11/17 04:14:48;;;;;;;;;;;21.90;54.60;;;;;;697036;28;815;-82
2021/11/17 04:15:12;;;;;;;;;;;21.90;54.60;;;;;;697158;28;877;-79
2021/11/17 04:15:35;;;;;;;;;;;21.90;54.60;;;;;;697137;28;981;-81
2021/11/17 04:15:58;;;;;;;;;;;21.90;54.60;;;;;;696820;28;1985;-80
2021/11/17 04:16:18;;;;;;;;;;;21.90;54.50;;;;;;697166;28;906;-81
2021/11/17 04:17:01;;;;;;;;;;;21.90;54.60;;;;;;697184;28;878;-81
2021/11/17 04:17:34;;;;;;;;;;;21.90;54.50;;;;;;694002;28;1335;-81
2021/11/17 04:18:12;;;;;;;;;;;21.90;54.50;;;;;;694252;28;917;-81
2021/11/17 04:18:51;;;;;;;;;;;21.90;54.50;;;;;;694377;28;822;-81
2021/11/17 04:19:21;;;;;;;;;;;21.90;54.50;;;;;;695609;28;851;-82
2021/11/17 04:19:57;;;;;;;;;;;21.90;54.50;;;;;;697109;28;1013;-81
2021/11/17 04:20:28;;;;;;;;;;;21.90;54.50;;;;;;697241;28;889;-82
2021/11/17 04:21:08;;;;;;;;;;;21.90;54.60;;;;;;697285;28;889;-82
2021/11/17 04:21:47;;;;;;;;;;;21.90;54.60;;;;;;696891;28;965;-81
2021/11/17 04:22:13;;;;;;;;;;;21.90;54.60;;;;;;696729;28;1165;-81
2021/11/17 04:22:52;;;;;;;;;;;21.90;54.70;;;;;;696653;28;798;-80
2021/11/17 04:23:12;;;;;;;;;;;21.80;54.50;;;;;;696707;28;869;-81
2021/11/17 04:23:51;;;;;;;;;;;21.90;54.60;;;;;;696636;28;893;-80
2021/11/17 04:24:27;;;;;;;;;;;21.80;54.50;;;;;;696829;28;886;-80
2021/11/17 04:25:02;;;;;;;;;;;21.90;54.70;;;;;;696702;28;932;-81
2021/11/17 04:25:23;;;;;;;;;;;21.80;54.60;;;;;;696660;28;876;-81
2021/11/17 04:25:46;;;;;;;;;;;21.90;54.60;;;;;;696780;28;869;-81
2021/11/17 04:26:07;;;;;;;;;;;21.90;54.60;;;;;;696566;28;959;-81
2021/11/17 04:26:27;;;;;;;;;;;21.90;54.70;;;;;;696548;28;974;-80
2021/11/17 04:27:03;;;;;;;;;;;21.80;54.60;;;;;;696781;28;778;-81
2021/11/17 04:27:42;;;;;;;;;;;21.80;54.60;;;;;;696619;28;854;-81
2021/11/17 04:28:28;;;;;;;;;;;21.80;54.60;;;;;;696556;28;979;-80
2021/11/17 04:28:54;;;;;;;;;;;21.80;54.60;;;;;;693931;28;1366;-80
2021/11/17 04:29:15;;;;;;;;;;;21.80;54.60;;;;;;694000;28;896;-80
2021/11/17 04:29:58;;;;;;;;;;;21.80;54.60;;;;;;700468;28;944;-80
2021/11/17 04:30:19;;;;;;;;;;;21.80;54.60;;;;;;693874;28;1315;-81
2021/11/17 04:30:48;;;;;;;;;;;21.80;54.60;;;;;;693886;28;909;-81
2021/11/17 04:31:19;;;;;;;;;;;21.80;54.60;;;;;;693819;28;1024;-80
2021/11/17 04:31:42;;;;;;;;;;;21.80;54.60;;;;;;693937;28;806;-80
2021/11/17 04:32:03;;;;;;;;;;;21.80;54.60;;;;;;693840;28;1032;-80
2021/11/17 04:32:23;;;;;;;;;;;21.80;54.60;;;;;;693913;28;834;-81
2021/11/17 04:32:56;;;;;;;;;;;21.80;54.60;;;;;;693908;28;1026;-80
2021/11/17 04:33:23;;;;;;;;;;;21.80;54.60;;;;;;694060;28;798;-81
2021/11/17 04:33:46;;;;;;;;;;;21.80;54.60;;;;;;693998;28;833;-80
2021/11/17 04:34:25;;;;;;;;;;;21.80;54.60;;;;;;693818;28;767;-81
2021/11/17 04:35:04;;;;;;;;;;;21.80;54.60;;;;;;694025;28;858;-81
2021/11/17 04:35:34;;;;;;;;;;;21.80;54.60;;;;;;693833;28;835;-80
2021/11/17 04:35:54;;;;;;;;;;;21.80;54.60;;;;;;693749;28;1971;-80
2021/11/17 04:36:24;;;;;;;;;;;21.80;54.60;;;;;;693994;28;1044;-80
2021/11/17 04:36:56;;;;;;;;;;;21.80;54.60;;;;;;693949;28;893;-80
2021/11/17 04:37:28;;;;;;;;;;;21.80;54.60;;;;;;693985;28;889;-80
2021/11/17 04:38:01;;;;;;;;;;;21.80;54.60;;;;;;694057;28;811;-80
2021/11/17 04:38:27;;;;;;;;;;;21.80;54.60;;;;;;693891;28;917;-81
2021/11/17 04:39:09;;;;;;;;;;;21.80;54.60;;;;;;694002;28;881;-81
2021/11/17 04:39:54;;;;;;;;;;;21.80;54.60;;;;;;693856;28;811;-81
2021/11/17 04:40:33;;;;;;;;;;;21.80;54.60;;;;;;693992;28;858;-82
2021/11/17 04:40:54;;;;;;;;;;;21.80;54.60;;;;;;693814;28;870;-81
2021/11/17 04:41:39;;;;;;;;;;;21.80;54.60;;;;;;693924;28;842;-80
2021/11/17 04:42:09;;;;;;;;;;;21.80;54.60;;;;;;693832;28;782;-81
2021/11/17 04:42:39;;;;;;;;;;;21.80;54.60;;;;;;693807;28;1149;-80
2021/11/17 04:42:59;;;;;;;;;;;21.80;54.70;;;;;;693860;28;877;-81
2021/11/17 04:43:26;;;;;;;;;;;21.70;54.60;;;;;;693782;28;997;-81
2021/11/17 04:43:58;;;;;;;;;;;21.70;54.60;;;;;;693931;28;893;-81
2021/11/17 04:44:26;;;;;;;;;;;21.70;54.60;;;;;;694022;28;885;-81
2021/11/17 04:45:03;;;;;;;;;;;21.70;54.70;;;;;;694008;28;1282;-81
2021/11/17 04:45:30;;;;;;;;;;;21.70;54.60;;;;;;693830;28;1020;-81
2021/11/17 04:45:56;;;;;;;;;;;21.70;54.60;;;;;;693799;28;560;-81
2021/11/17 04:46:18;;;;;;;;;;;21.70;54.50;;;;;;693933;28;822;-81
2021/11/17 04:46:45;;;;;;;;;;;21.70;54.60;;;;;;693817;28;815;-81
2021/11/17 04:47:24;;;;;;;;;;;21.80;54.60;;;;;;693750;28;912;-81
2021/11/17 04:48:03;;;;;;;;;;;21.70;54.50;;;;;;693955;28;810;-82
2021/11/17 04:48:43;;;;;;;;;;;21.70;54.60;;;;;;693860;28;1086;-81
2021/11/17 04:49:03;;;;;;;;;;;21.70;54.60;;;;;;693893;28;1114;-81
2021/11/17 04:49:26;;;;;;;;;;;21.70;54.60;;;;;;693799;28;973;-79
2021/11/17 04:49:53;;;;;;;;;;;21.70;54.60;;;;;;693962;28;857;-81
2021/11/17 04:50:16;;;;;;;;;;;21.70;54.50;;;;;;693866;28;913;-80
2021/11/17 04:50:51;;;;;;;;;;;21.70;54.60;;;;;;693837;28;838;-81
2021/11/17 04:51:12;;;;;;;;;;;21.70;54.50;;;;;;691111;28;739;-83
2021/11/17 04:51:41;;;;;;;;;;;21.70;54.50;;;;;;691118;28;802;-81
2021/11/17 04:52:14;;;;;;;;;;;21.70;54.60;;;;;;691043;28;891;-81
2021/11/17 04:52:52;;;;;;;;;;;21.70;54.60;;;;;;691116;28;810;-80
2021/11/17 04:53:19;;;;;;;;;;;21.70;54.50;;;;;;693861;28;834;-80
2021/11/17 04:53:46;;;;;;;;;;;21.70;54.60;;;;;;693803;28;953;-81
2021/11/17 04:54:20;;;;;;;;;;;21.70;54.60;;;;;;693888;28;866;-81
2021/11/17 04:54:53;;;;;;;;;;;21.70;54.60;;;;;;693972;28;861;-81
2021/11/17 04:55:21;;;;;;;;;;;21.70;54.60;;;;;;693915;28;842;-81
2021/11/17 04:55:41;;;;;;;;;;;21.70;54.60;;;;;;693875;28;949;-81
2021/11/17 04:56:08;;;;;;;;;;;21.70;54.60;;;;;;690944;28;1894;-81
2021/11/17 04:56:46;;;;;;;;;;;21.70;54.60;;;;;;690875;28;1007;-81
2021/11/17 04:57:32;;;;;;;;;;;21.70;54.60;;;;;;691104;28;826;-81
2021/11/17 04:57:53;;;;;;;;;;;21.70;54.60;;;;;;692376;28;941;-81
2021/11/17 04:58:20;;;;;;;;;;;21.70;54.60;;;;;;691062;28;964;-81
2021/11/17 04:58:47;;;;;;;;;;;21.70;54.60;;;;;;691193;28;495;-81
2021/11/17 04:59:07;;;;;;;;;;;21.70;54.60;;;;;;691086;28;893;-81
2021/11/17 04:59:53;;;;;;;;;;;21.70;54.60;;;;;;691010;28;830;-81
2021/11/17 05:00:35;;;;;;;;;;;21.70;54.60;;;;;;693311;28;1453;-81
2021/11/17 05:01:15;;;;;;;;;;;21.70;54.60;;;;;;693794;28;949;-80
2021/11/17 05:01:39;;;;;;;;;;;21.70;54.60;;;;;;693807;28;822;-82
2021/11/17 05:02:02;;;;;;;;;;;21.70;54.60;;;;;;693670;28;926;-81
2021/11/17 05:02:28;;;;;;;;;;;21.70;54.60;;;;;;690946;28;1255;-81
2021/11/17 05:03:04;;;;;;;;;;;21.70;54.60;;;;;;691313;28;823;-80
2021/11/17 05:03:30;;;;;;;;;;;21.70;54.60;;;;;;691070;28;802;-80
2021/11/17 05:04:08;;;;;;;;;;;21.70;54.60;;;;;;691001;28;949;-81
2021/11/17 05:04:47;;;;;;;;;;;21.70;54.60;;;;;;693769;28;901;-81
2021/11/17 05:05:26;;;;;;;;;;;21.70;54.60;;;;;;693736;28;794;-81
2021/11/17 05:05:48;;;;;;;;;;;21.70;54.60;;;;;;691049;28;1214;-81
2021/11/17 05:06:28;;;;;;;;;;;21.70;54.60;;;;;;691031;28;850;-81
2021/11/17 05:06:58;;;;;;;;;;;21.70;54.60;;;;;;690804;28;1079;-81
2021/11/17 05:07:21;;;;;;;;;;;21.70;54.60;;;;;;691184;28;795;-80
2021/11/17 05:07:51;;;;;;;;;;;21.70;54.60;;;;;;692947;28;866;-81
2021/11/17 05:08:20;;;;;;;;;;;21.70;54.60;;;;;;693874;28;901;-81
2021/11/17 05:08:41;;;;;;;;;;;21.70;54.60;;;;;;705263;28;919;-80
2021/11/17 05:09:01;;;;;;;;;;;21.70;54.60;;;;;;705160;28;889;-81
2021/11/17 05:09:40;;;;;;;;;;;21.70;54.60;;;;;;705184;28;794;-81
2021/11/17 05:10:09;;;;;;;;;;;21.70;54.60;;;;;;705157;28;813;-81
2021/11/17 05:10:32;;;;;;;;;;;21.70;54.50;;;;;;705109;28;786;-81
2021/11/17 05:10:55;;;;;;;;;;;21.70;54.60;;;;;;705191;28;821;-81
2021/11/17 05:11:25;;;;;;;;;;;21.70;54.60;;;;;;705273;28;818;-82
2021/11/17 05:12:04;;;;;;;;;;;21.70;54.60;;;;;;705235;28;928;-81
2021/11/17 05:12:42;;;;;;;;;;;21.70;54.60;;;;;;705206;28;968;-81
2021/11/17 05:13:09;;;;;;;;;;;21.60;54.50;;;;;;702046;28;897;-82
2021/11/17 05:13:39;;;;;;;;;;;21.70;54.60;;;;;;702214;28;939;-82
2021/11/17 05:14:06;;;;;;;;;;;21.70;54.60;;;;;;699321;28;845;-81
2021/11/17 05:14:32;;;;;;;;;;;21.70;54.60;;;;;;699274;28;802;-81
2021/11/17 05:14:55;;;;;;;;;;;21.70;54.60;;;;;;700570;28;885;-81
2021/11/17 05:15:54;;;;;;;;;;;21.70;54.60;;;;;;702249;28;801;-82
2021/11/17 05:16:33;;;;;;;;;;;21.60;54.60;;;;;;693722;28;1910;-82
2021/11/17 05:16:54;;;;;;;;;;;21.70;54.60;;;;;;693794;28;839;-81
2021/11/17 05:17:32;;;;;;;;;;;21.70;54.60;;;;;;693846;28;791;-82
2021/11/17 05:18:02;;;;;;;;;;;21.70;54.60;;;;;;693730;28;827;-82
2021/11/17 05:18:31;;;;;;;;;;;21.70;54.70;;;;;;693745;28;898;-82
2021/11/17 05:18:52;;;;;;;;;;;21.70;54.70;;;;;;693881;28;901;-82
2021/11/17 05:19:35;;;;;;;;;;;21.70;54.70;;;;;;693845;28;886;-80
2021/11/17 05:20:08;;;;;;;;;;;21.70;54.70;;;;;;685408;28;1184;-81
2021/11/17 05:20:35;;;;;;;;;;;21.60;54.70;;;;;;685571;28;1258;-81
2021/11/17 05:21:14;;;;;;;;;;;21.70;54.80;;;;;;685517;28;1381;-82
2021/11/17 05:21:52;;;;;;;;;;;21.70;54.80;;;;;;685620;28;1227;-81
2021/11/17 05:22:16;;;;;;;;;;;21.70;54.80;;;;;;685647;28;1302;-80
2021/11/17 05:22:39;;;;;;;;;;;21.70;54.80;;;;;;685620;28;976;-82
2021/11/17 05:23:02;;;;;;;;;;;21.70;54.80;;;;;;685646;28;938;-82
2021/11/17 05:23:22;;;;;;;;;;;21.60;54.80;;;;;;685431;28;1219;-82
2021/11/17 05:23:46;;;;;;;;;;;21.70;54.80;;;;;;685679;28;1234;-81
2021/11/17 05:24:14;;;;;;;;;;;21.70;54.80;;;;;;685698;28;1219;-82
2021/11/17 05:24:34;;;;;;;;;;;21.60;54.80;;;;;;685553;28;1286;-83
2021/11/17 05:25:04;;;;;;;;;;;21.60;54.80;;;;;;685465;28;1357;-82
2021/11/17 05:25:24;;;;;;;;;;;21.70;54.80;;;;;;685247;28;1860;-79
2021/11/17 05:25:49;;;;;;;;;;;21.60;54.80;;;;;;685701;28;979;-85
2021/11/17 05:26:12;;;;;;;;;;;21.70;54.90;;;;;;682514;29;1674;-82
2021/11/17 05:26:36;;;;;;;;;;;21.60;54.80;;;;;;682868;29;1119;-80
2021/11/17 05:26:56;;;;;;;;;;;21.70;54.90;;;;;;683009;29;815;-81
2021/11/17 05:27:29;;;;;;;;;;;21.60;54.80;;;;;;684385;28;1574;-81
2021/11/17 05:27:52;;;;;;;;;;;21.70;54.90;;;;;;685583;28;1240;-82
2021/11/17 05:28:12;;;;;;;;;;;21.70;54.90;;;;;;685798;28;910;-82
2021/11/17 05:28:56;;;;;;;;;;;21.70;54.90;;;;;;685751;28;803;-84
2021/11/17 05:29:35;;;;;;;;;;;21.70;55.00;;;;;;685759;28;1284;-83
2021/11/17 05:30:20;;;;;;;;;;;21.70;55.10;;;;;;682917;29;929;-83